Terminal Aerodrome Forecast
Issued by NWS Chicago, IL

Home | Current Version | Previous Version | Text Only | Print | Product List | Glossary On
Versions: 1 2 3 4 5 6 7 8 9 10 11 12 13 14 15 16 17 18 19 20 21 22 23 24 25 26 27
357
FTUS43 KLOT 270200 AAA
TAFRFD
TAF AMD
KRFD 270200Z 2702/2724 08004KT P6SM BKN120
     FM270530 11005KT P6SM VCSH OVC070
     FM270630 11005KT 3SM -SHRA VCTS OVC025CB
      TEMPO 2707/2711 1 1/2SM TSRA OVC010CB
     FM271200 16006KT P6SM OVC015
     FM271700 20011KT P6SM SCT035 BKN200=

USA.gov is the U.S. government's official web portal to all federal, state and local government web resources and services.